createdAt,value
2018-11-05T00:00:31.952Z,717.63
2018-11-05T00:03:00.782Z,399.60
2018-11-05T00:05:30.228Z,314.47
2018-11-05T00:07:59.053Z,85.93
2018-11-05T00:10:27.911Z,21.53
2018-11-05T00:12:56.738Z,23.00
2018-11-05T00:15:25.636Z,20.00
2018-11-05T00:17:54.495Z,18.37
2018-11-05T00:20:23.294Z,23.03
2018-11-05T00:22:52.106Z,23.00
2018-11-05T00:25:21.056Z,23.53
2018-11-05T00:27:49.811Z,35.50
2018-11-05T00:30:18.525Z,42.30
2018-11-05T00:32:48.333Z,26.83
2018-11-05T00:35:17.530Z,31.57
2018-11-05T00:37:46.343Z,33.80
2018-11-05T00:40:15.846Z,43.47
2018-11-05T00:42:45.261Z,29.20
2018-11-05T00:45:14.564Z,44.67
2018-11-05T00:47:43.756Z,609.23
2018-11-05T00:50:14.620Z,42.60
2018-11-05T00:52:43.415Z,44.83
2018-11-05T00:55:12.704Z,13.30
2018-11-05T00:57:41.466Z,46.87
2018-11-05T01:00:12.553Z,21.03
2018-11-05T01:02:41.733Z,22.00
2018-11-05T01:05:12.116Z,21.30
2018-11-05T01:07:41.623Z,22.07
2018-11-05T01:10:11.634Z,21.50
2018-11-05T01:12:40.479Z,17.10
2018-11-05T01:15:12.523Z,11.33
2018-11-05T01:17:41.333Z,10.93
2018-11-05T01:20:11.612Z,11.17
2018-11-05T01:22:41.382Z,12.47
2018-11-05T01:25:10.597Z,13.97
2018-11-05T01:27:39.488Z,16.27
2018-11-05T01:30:11.179Z,16.00
2018-11-05T01:32:40.145Z,51.73
2018-11-05T01:35:11.003Z,25.00
2018-11-05T01:37:39.846Z,18.33
2018-11-05T01:40:13.081Z,17.23
2018-11-05T01:42:41.994Z,17.60
2018-11-05T01:45:12.706Z,25.43
2018-11-05T01:47:42.214Z,175.30
2018-11-05T01:50:13.341Z,423.07
2018-11-05T01:52:42.748Z,606.43
2018-11-05T01:55:11.685Z,176.50
2018-11-05T01:57:41.056Z,177.97
2018-11-05T02:00:15.005Z,142.40
2018-11-05T02:02:44.440Z,68.60
2018-11-05T02:05:13.187Z,30.53
2018-11-05T02:07:43.073Z,22.13
2018-11-05T02:10:14.633Z,25.00
2018-11-05T02:12:43.427Z,22.00
2018-11-05T02:15:13.351Z,25.80
2018-11-05T02:17:44.237Z,16.93
2018-11-05T02:20:14.153Z,31.30
2018-11-05T02:22:42.940Z,134.50
2018-11-05T02:25:13.429Z,71.03
2018-11-05T02:27:42.280Z,80.53
2018-11-05T02:30:14.351Z,36.13
2018-11-05T02:32:43.137Z,30.20
2018-11-05T02:35:12.901Z,24.37
2018-11-05T02:37:42.408Z,21.10
2018-11-05T02:40:12.935Z,23.93
2018-11-05T02:42:42.873Z,27.17
2018-11-05T02:45:12.758Z,28.57
2018-11-05T02:47:41.494Z,23.83
2018-11-05T02:50:11.749Z,21.17
2018-11-05T02:52:41.413Z,20.33
2018-11-05T02:55:10.254Z,26.40
2018-11-05T02:57:39.030Z,31.03
2018-11-05T03:00:13.522Z,27.23
2018-11-05T03:02:42.591Z,21.53
2018-11-05T03:05:13.329Z,20.00
2018-11-05T03:07:42.516Z,27.27
2018-11-05T03:10:12.527Z,27.37
2018-11-05T03:12:42.241Z,22.63
2018-11-05T03:15:12.465Z,26.50
2018-11-05T03:17:41.685Z,64.27
2018-11-05T03:20:12.163Z,29.90
2018-11-05T03:22:41.527Z,24.93
2018-11-05T03:25:10.389Z,32.20
2018-11-05T03:27:39.467Z,17.83
2018-11-05T03:30:12.148Z,41.30
2018-11-05T03:32:40.887Z,74.17
2018-11-05T03:35:10.809Z,130.53
2018-11-05T03:37:41.103Z,131.90
2018-11-05T03:40:11.029Z,153.43
2018-11-05T03:42:40.756Z,125.57
2018-11-05T03:45:11.848Z,163.90
2018-11-05T03:47:40.712Z,141.87
2018-11-05T03:50:12.703Z,201.43
2018-11-05T03:52:41.794Z,241.17
2018-11-05T03:55:10.762Z,268.60
2018-11-05T03:57:39.616Z,157.63
2018-11-05T04:00:10.764Z,244.20
2018-11-05T04:02:40.364Z,114.90
2018-11-05T04:05:09.289Z,118.10
2018-11-05T04:07:38.516Z,66.87
2018-11-05T04:10:08.543Z,72.10
2018-11-05T04:12:37.353Z,73.73
2018-11-05T04:15:06.516Z,262.23
2018-11-05T04:17:35.341Z,338.57
2018-11-05T04:20:05.281Z,260.57
2018-11-05T04:22:34.017Z,167.93
2018-11-05T04:25:02.815Z,378.17
2018-11-05T04:27:31.566Z,302.33
2018-11-05T04:30:00.308Z,322.87
2018-11-05T04:32:29.044Z,205.33
2018-11-05T04:34:57.795Z,124.10
2018-11-05T04:37:26.539Z,179.23
2018-11-05T04:39:55.261Z,479.67
2018-11-05T04:42:24.093Z,286.53
2018-11-05T04:44:52.901Z,277.57
2018-11-05T04:47:21.697Z,110.93
2018-11-05T04:49:50.461Z,239.43
2018-11-05T04:52:19.261Z,456.83
2018-11-05T04:54:50.240Z,302.63
2018-11-05T04:57:20.116Z,272.80
2018-11-05T04:59:49.547Z,222.37
2018-11-05T05:02:18.284Z,236.87
2018-11-05T05:04:47.019Z,166.43
2018-11-05T05:07:15.784Z,155.80
2018-11-05T05:09:44.589Z,272.00
2018-11-05T05:12:13.418Z,257.97
2018-11-05T05:14:42.251Z,145.37
2018-11-05T05:17:11.201Z,198.77
2018-11-05T05:19:39.983Z,359.83
2018-11-05T05:22:08.736Z,142.00
2018-11-05T05:24:37.468Z,166.83
2018-11-05T05:27:06.423Z,183.13
2018-11-05T05:29:35.203Z,133.17
2018-11-05T05:32:04.251Z,208.53
2018-11-05T05:34:33.112Z,347.80
2018-11-05T05:37:01.896Z,398.00
2018-11-05T05:39:30.633Z,394.13
2018-11-05T05:41:59.413Z,227.63
2018-11-05T05:44:28.888Z,198.57
2018-11-05T05:46:57.676Z,465.27
2018-11-05T05:49:26.453Z,253.57
2018-11-05T05:51:55.283Z,234.53
2018-11-05T05:54:24.116Z,388.93
2018-11-05T05:56:52.888Z,137.87
2018-11-05T05:59:21.631Z,227.97
2018-11-05T06:01:50.504Z,80.40
2018-11-05T06:04:19.253Z,252.30
2018-11-05T06:06:48.002Z,105.27
2018-11-05T06:09:17.013Z,365.90
2018-11-05T06:11:45.966Z,144.07
2018-11-05T06:14:14.806Z,124.33
2018-11-05T06:16:43.697Z,306.40
2018-11-05T06:19:12.536Z,265.20
2018-11-05T06:21:41.349Z,98.93
2018-11-05T06:24:10.153Z,151.60
2018-11-05T06:26:39.337Z,113.87
2018-11-05T06:29:08.154Z,262.57
2018-11-05T06:31:37.048Z,297.60
2018-11-05T06:34:05.944Z,367.20
2018-11-05T06:36:34.753Z,537.27
2018-11-05T06:39:05.896Z,340.00
2018-11-05T06:41:35.717Z,127.47
2018-11-05T06:44:04.855Z,446.23
2018-11-05T06:46:34.184Z,200.83
2018-11-05T06:49:03.128Z,97.77
2018-11-05T06:51:32.578Z,358.53
2018-11-05T06:54:02.248Z,256.97
2018-11-05T06:56:31.076Z,106.47
2018-11-05T06:58:59.905Z,322.00
2018-11-05T07:01:29.536Z,416.10
2018-11-05T07:03:58.315Z,338.27
2018-11-05T07:06:27.367Z,388.00
2018-11-05T07:08:56.215Z,98.37
2018-11-05T07:11:25.006Z,148.87
2018-11-05T07:13:53.733Z,242.77
2018-11-05T07:16:22.551Z,84.63
2018-11-05T07:18:51.484Z,101.90
2018-11-05T07:21:20.396Z,333.87
2018-11-05T07:23:49.422Z,122.20
2018-11-05T07:26:19.403Z,139.57
2018-11-05T07:28:48.261Z,72.50
2018-11-05T07:31:17.124Z,84.20
2018-11-05T07:33:46.065Z,214.67
2018-11-05T07:36:15.373Z,92.37
2018-11-05T07:38:44.161Z,70.33
2018-11-05T07:41:13.141Z,48.17
2018-11-05T07:43:41.899Z,55.57
2018-11-05T07:46:10.693Z,65.90
2018-11-05T07:48:39.542Z,100.73
2018-11-05T07:51:08.361Z,190.70
2018-11-05T07:53:37.186Z,70.10
2018-11-05T07:56:06.157Z,60.07
2018-11-05T07:58:34.859Z,66.70
2018-11-05T08:01:03.902Z,57.27
2018-11-05T08:03:32.666Z,32.57
2018-11-05T08:06:01.534Z,12.97
2018-11-05T08:08:30.311Z,13.53
2018-11-05T08:10:59.023Z,12.47
2018-11-05T08:13:27.803Z,15.73
2018-11-05T08:15:56.601Z,14.17
2018-11-05T08:18:25.394Z,15.97
2018-11-05T08:20:54.181Z,14.77
2018-11-05T08:23:22.943Z,13.47
2018-11-05T08:25:51.918Z,13.23
2018-11-05T08:28:21.458Z,12.13
2018-11-05T08:30:50.235Z,11.93
2018-11-05T08:33:18.962Z,11.10
2018-11-05T08:35:47.694Z,12.10
2018-11-05T08:38:16.391Z,11.50
2018-11-05T08:40:45.129Z,13.73
2018-11-05T08:43:13.838Z,11.93
2018-11-05T08:45:42.583Z,12.83
2018-11-05T08:48:11.402Z,12.53
2018-11-05T08:50:40.275Z,12.83
2018-11-05T08:53:09.071Z,13.07
2018-11-05T08:55:37.892Z,13.60
2018-11-05T08:58:07.681Z,15.43
2018-11-05T09:00:41.958Z,13.97
2018-11-05T09:03:10.709Z,17.80
2018-11-05T09:05:39.459Z,16.90
2018-11-05T09:08:08.344Z,18.10
2018-11-05T09:10:37.745Z,16.13
2018-11-05T09:13:06.754Z,16.37
2018-11-05T09:15:35.557Z,15.30
2018-11-05T09:18:04.524Z,15.13
2018-11-05T09:20:33.712Z,13.80
2018-11-05T09:23:18.704Z,14.37
2018-11-05T09:25:47.743Z,12.70
2018-11-05T09:28:16.614Z,13.57
2018-11-05T09:30:45.431Z,11.60
2018-11-05T09:33:14.729Z,12.30
2018-11-05T09:35:43.632Z,11.77
2018-11-05T09:38:12.482Z,12.23
2018-11-05T09:40:41.341Z,18.37
2018-11-05T09:43:10.182Z,11.63
2018-11-05T09:45:39.044Z,11.53
2018-11-05T09:48:08.641Z,12.27
2018-11-05T09:50:37.485Z,12.40
2018-11-05T09:53:06.479Z,11.47
2018-11-05T09:55:35.197Z,13.27
2018-11-05T09:58:04.029Z,12.57
2018-11-05T10:00:32.784Z,13.27
2018-11-05T10:03:06.910Z,13.30
2018-11-05T10:05:35.626Z,14.83
2018-11-05T10:08:04.405Z,13.73
2018-11-05T10:10:33.241Z,14.60
2018-11-05T10:13:01.996Z,15.78
2018-11-05T10:15:30.739Z,11.70
2018-11-05T10:17:59.534Z,12.80
2018-11-05T10:20:28.339Z,11.23
2018-11-05T10:22:57.076Z,15.20
2018-11-05T10:25:25.848Z,15.53
2018-11-05T10:27:59.188Z,16.05
2018-11-05T10:30:28.013Z,11.90
2018-11-05T10:32:56.813Z,14.23
2018-11-05T10:35:57.366Z,11.28
2018-11-05T10:38:26.444Z,11.28
2018-11-05T10:40:55.253Z,12.58
2018-11-05T10:43:24.133Z,13.25
2018-11-05T10:45:52.996Z,10.10
2018-11-05T10:48:21.844Z,12.65
2018-11-05T10:50:50.708Z,10.32
2018-11-05T10:53:19.681Z,10.68
2018-11-05T10:55:48.458Z,9.20
2018-11-05T10:58:17.355Z,10.65
2018-11-05T11:00:51.496Z,12.03
2018-11-05T11:03:20.416Z,8.78
2018-11-05T11:05:49.216Z,8.70
2018-11-05T11:08:18.024Z,7.83
2018-11-05T11:10:46.846Z,11.35
2018-11-05T11:13:16.025Z,12.28
2018-11-05T11:15:45.186Z,10.85
2018-11-05T11:18:13.949Z,10.45
2018-11-05T11:20:42.763Z,9.48
2018-11-05T11:23:11.510Z,9.85
2018-11-05T11:25:40.303Z,7.33
2018-11-05T11:28:09.135Z,6.90
2018-11-05T11:30:37.843Z,7.47
2018-11-05T11:33:06.674Z,6.70
2018-11-05T11:35:35.539Z,7.37
2018-11-05T11:38:04.791Z,6.90
2018-11-05T11:40:33.592Z,8.33
2018-11-05T11:43:02.480Z,6.72
2018-11-05T11:45:31.305Z,7.72
2018-11-05T11:48:00.500Z,6.15
2018-11-05T11:50:29.303Z,7.53
2018-11-05T11:52:58.125Z,13.10
2018-11-05T11:55:26.951Z,7.42
2018-11-05T11:57:55.966Z,6.05
2018-11-05T12:00:25.621Z,8.68
2018-11-05T12:02:54.528Z,10.38
2018-11-05T12:05:23.375Z,5.35
2018-11-05T12:07:52.156Z,5.42
2018-11-05T12:10:22.796Z,5.47
2018-11-05T12:12:51.615Z,7.80
2018-11-05T12:15:21.323Z,5.35
2018-11-05T12:17:51.491Z,5.05
2018-11-05T12:20:21.521Z,3.30
2018-11-05T12:22:50.777Z,3.80
2018-11-05T12:25:19.632Z,3.00
2018-11-05T12:27:48.405Z,3.52
2018-11-05T12:30:18.951Z,2.40
2018-11-05T12:32:48.640Z,2.40
2018-11-05T12:35:17.466Z,3.60
2018-11-05T12:37:47.456Z,3.33
2018-11-05T12:40:17.402Z,2.52
2018-11-05T12:42:47.241Z,3.03
2018-11-05T12:45:16.050Z,2.70
2018-11-05T12:47:44.811Z,10.00
2018-11-05T12:50:16.502Z,5.10
2018-11-05T12:52:46.129Z,3.87
2018-11-05T12:55:14.939Z,5.80
2018-11-05T12:57:44.928Z,5.63
2018-11-05T13:00:16.903Z,3.73
2018-11-05T13:02:53.054Z,3.13
2018-11-05T13:05:22.518Z,2.33
2018-11-05T13:07:51.314Z,2.80
2018-11-05T13:10:20.223Z,2.17
2018-11-05T13:12:49.071Z,3.20
2018-11-05T13:15:17.959Z,2.57
2018-11-05T13:17:46.826Z,3.13
2018-11-05T13:20:17.941Z,3.33
2018-11-05T13:22:46.946Z,4.20
2018-11-05T13:25:15.913Z,1.80
2018-11-05T13:27:46.038Z,4.77
2018-11-05T13:30:16.288Z,4.30
2018-11-05T13:32:45.462Z,1.80
2018-11-05T13:35:15.452Z,5.40
2018-11-05T13:37:44.612Z,2.23
2018-11-05T13:40:14.804Z,2.67
2018-11-05T13:42:44.073Z,3.70
2018-11-05T13:45:13.659Z,2.40
2018-11-05T13:47:43.183Z,1.97
2018-11-05T13:50:11.825Z,2.53
2018-11-05T13:52:40.782Z,4.40
2018-11-05T13:55:14.761Z,2.03
2018-11-05T13:57:44.797Z,3.47
2018-11-05T14:00:15.036Z,2.33
2018-11-05T14:02:43.912Z,3.43
2018-11-05T14:05:12.980Z,3.50
2018-11-05T14:07:41.785Z,2.27
2018-11-05T14:10:16.535Z,2.93
2018-11-05T14:12:46.688Z,3.77
2018-11-05T14:15:15.481Z,3.67
2018-11-05T14:17:44.949Z,2.03
2018-11-05T14:20:14.848Z,5.63
2018-11-05T14:22:43.724Z,2.10
2018-11-05T14:25:14.931Z,4.20
2018-11-05T14:27:45.173Z,2.97
2018-11-05T14:30:14.021Z,3.40
2018-11-05T14:32:44.547Z,3.03
2018-11-05T14:35:13.334Z,3.77
2018-11-05T14:37:42.146Z,4.77
2018-11-05T14:40:12.985Z,4.93
2018-11-05T14:42:41.912Z,3.20
2018-11-05T14:45:13.076Z,3.60
2018-11-05T14:47:42.788Z,2.73
2018-11-05T14:50:13.881Z,3.03
2018-11-05T14:52:42.889Z,2.37
2018-11-05T14:55:14.699Z,4.30
2018-11-05T14:57:44.295Z,3.33
2018-11-05T15:00:17.761Z,4.40
2018-11-05T15:02:47.319Z,2.23
2018-11-05T15:05:16.550Z,3.47
2018-11-05T15:07:46.053Z,4.00
2018-11-05T15:10:16.189Z,3.30
2018-11-05T15:12:45.095Z,2.70
2018-11-05T15:15:14.457Z,3.70
2018-11-05T15:17:44.606Z,3.17
2018-11-05T15:20:14.853Z,3.50
2018-11-05T15:22:43.581Z,3.03
2018-11-05T15:25:12.922Z,4.83
2018-11-05T15:27:41.674Z,3.87
2018-11-05T15:30:16.550Z,3.33
2018-11-05T15:32:45.541Z,4.20
2018-11-05T15:35:14.517Z,3.83
2018-11-05T15:37:43.888Z,4.50
2018-11-05T15:40:15.125Z,4.83
2018-11-05T15:42:44.037Z,4.17
2018-11-05T15:45:13.886Z,4.80
2018-11-05T15:47:42.969Z,3.53
2018-11-05T15:50:14.181Z,4.97
2018-11-05T15:52:43.405Z,3.03
2018-11-05T15:55:12.004Z,4.07
2018-11-05T15:57:40.973Z,3.00
2018-11-05T16:00:21.639Z,6.87
2018-11-05T16:02:51.858Z,9.17
2018-11-05T16:05:20.816Z,6.87
2018-11-05T16:07:49.655Z,4.93
2018-11-05T16:10:18.489Z,9.63
2018-11-05T16:12:47.671Z,9.17
2018-11-05T16:15:16.476Z,4.90
2018-11-05T16:17:45.256Z,5.97
2018-11-05T16:20:15.461Z,6.97
2018-11-05T16:22:44.656Z,8.00
2018-11-05T16:25:13.452Z,7.50
2018-11-05T16:27:42.589Z,5.40
2018-11-05T16:30:14.007Z,5.47
2018-11-05T16:32:43.241Z,6.77
2018-11-05T16:35:12.222Z,5.73
2018-11-05T16:37:40.989Z,6.93
2018-11-05T16:40:12.662Z,7.97
2018-11-05T16:42:41.926Z,6.83
2018-11-05T16:45:11.088Z,16.47
2018-11-05T16:47:40.984Z,6.33
2018-11-05T16:50:13.236Z,86.77
2018-11-05T16:52:42.987Z,12.90
2018-11-05T16:55:13.004Z,72.30
2018-11-05T16:57:42.382Z,9.07
2018-11-05T17:00:11.799Z,8.33
2018-11-05T17:02:41.066Z,8.57
2018-11-05T17:05:09.744Z,7.40
2018-11-05T17:07:38.664Z,8.47
2018-11-05T17:10:09.516Z,10.63
2018-11-05T17:12:38.340Z,9.57
2018-11-05T17:15:09.743Z,12.70
2018-11-05T17:17:39.056Z,14.53
2018-11-05T17:20:11.621Z,12.30
2018-11-05T17:22:40.914Z,10.47
2018-11-05T17:25:10.624Z,25.37
2018-11-05T17:27:39.686Z,9.10
2018-11-05T17:30:16.021Z,13.77
2018-11-05T17:32:44.921Z,9.83
2018-11-05T17:35:14.474Z,8.87
2018-11-05T17:37:43.919Z,9.73
2018-11-05T17:40:14.055Z,8.43
2018-11-05T17:42:42.869Z,6.53
2018-11-05T17:45:14.045Z,6.83
2018-11-05T17:47:42.820Z,5.50
2018-11-05T17:50:17.175Z,4.93
2018-11-05T17:52:46.059Z,5.23
2018-11-05T17:55:15.188Z,4.30
2018-11-05T17:57:45.121Z,4.27
2018-11-05T18:00:17.720Z,4.00
2018-11-05T18:02:47.228Z,4.80
2018-11-05T18:05:16.338Z,3.10
2018-11-05T18:07:45.885Z,3.03
2018-11-05T18:10:15.016Z,3.70
2018-11-05T18:12:44.008Z,3.83
2018-11-05T18:15:13.653Z,2.40
2018-11-05T18:17:44.441Z,3.03
2018-11-05T18:20:14.303Z,3.80
2018-11-05T18:22:43.209Z,4.87
2018-11-05T18:25:13.610Z,3.90
2018-11-05T18:27:42.639Z,4.80
2018-11-05T18:30:13.092Z,2.30
2018-11-05T18:32:42.607Z,5.67
2018-11-05T18:35:13.007Z,3.40
2018-11-05T18:37:43.313Z,2.73
2018-11-05T18:40:13.937Z,2.33
2018-11-05T18:42:43.473Z,2.87
2018-11-05T18:45:13.503Z,3.33
2018-11-05T18:47:43.151Z,2.90
2018-11-05T18:50:13.878Z,3.13
2018-11-05T18:52:44.198Z,3.37
2018-11-05T18:55:14.488Z,3.23
2018-11-05T18:57:43.416Z,3.70
2018-11-05T19:00:21.333Z,2.50
2018-11-05T19:02:51.139Z,4.07
2018-11-05T19:05:21.199Z,4.27
2018-11-05T19:07:50.574Z,5.17
2018-11-05T19:10:19.656Z,2.70
2018-11-05T19:12:49.356Z,3.20
2018-11-05T19:15:18.332Z,3.73
2018-11-05T19:17:47.834Z,4.17
2018-11-05T19:20:16.975Z,4.63
2018-11-05T19:22:46.188Z,2.87
2018-11-05T19:25:16.139Z,4.50
2018-11-05T19:27:45.262Z,3.73
2018-11-05T19:30:19.949Z,5.43
2018-11-05T19:32:48.971Z,3.10
2018-11-05T19:35:18.735Z,4.70
2018-11-05T19:37:48.020Z,4.93
2018-11-05T19:40:18.441Z,3.53
2018-11-05T19:42:50.423Z,3.70
2018-11-05T19:45:22.834Z,3.93
2018-11-05T19:47:52.016Z,2.97
2018-11-05T19:50:22.216Z,2.70
2018-11-05T19:52:52.821Z,2.90
2018-11-05T19:55:21.821Z,3.37
2018-11-05T19:57:51.507Z,3.50
2018-11-05T20:00:22.007Z,3.87
2018-11-05T20:02:50.997Z,3.97
2018-11-05T20:05:21.070Z,5.30
2018-11-05T20:07:51.746Z,4.20
2018-11-05T20:10:20.744Z,5.07
2018-11-05T20:12:50.151Z,6.33
2018-11-05T20:15:19.693Z,5.23
2018-11-05T20:17:49.621Z,7.43
2018-11-05T20:20:19.976Z,8.87
2018-11-05T20:22:48.935Z,8.87
2018-11-05T20:25:23.064Z,8.87
2018-11-05T20:27:53.221Z,8.20
2018-11-05T20:30:23.431Z,9.47
2018-11-05T20:32:54.628Z,8.50
2018-11-05T20:35:23.801Z,11.37
2018-11-05T20:37:53.704Z,9.50
2018-11-05T20:40:23.694Z,13.77
2018-11-05T20:42:53.046Z,11.27
2018-11-05T20:45:22.704Z,12.77
2018-11-05T20:47:52.802Z,10.67
2018-11-05T20:50:21.788Z,13.73
2018-11-05T20:52:51.548Z,16.60
2018-11-05T20:55:22.697Z,15.60
2018-11-05T20:57:51.686Z,15.83
2018-11-05T21:00:22.126Z,14.20
2018-11-05T21:02:51.190Z,12.33
2018-11-05T21:05:20.372Z,13.33
2018-11-05T21:07:50.027Z,12.77
2018-11-05T21:10:19.027Z,15.13
2018-11-05T21:12:48.804Z,13.00
2018-11-05T21:15:19.114Z,11.67
2018-11-05T21:17:49.770Z,12.63
2018-11-05T21:20:18.739Z,8.80
2018-11-05T21:22:49.362Z,12.60
2018-11-05T21:25:18.292Z,11.17
2018-11-05T21:27:47.543Z,10.43
2018-11-05T21:30:18.793Z,11.30
2018-11-05T21:32:48.307Z,10.33
2018-11-05T21:35:18.844Z,15.07
2018-11-05T21:37:47.783Z,10.40
2018-11-05T21:40:17.630Z,12.13
2018-11-05T21:42:46.807Z,10.87
2018-11-05T21:45:16.709Z,13.43
2018-11-05T21:47:46.021Z,12.07
2018-11-05T21:50:17.286Z,10.73
2018-11-05T21:52:47.527Z,10.67
2018-11-05T21:55:16.646Z,11.23
2018-11-05T21:57:47.552Z,8.57
2018-11-05T22:00:18.928Z,8.13
2018-11-05T22:02:54.524Z,9.70
2018-11-05T22:05:24.895Z,7.27
2018-11-05T22:07:54.895Z,7.77
2018-11-05T22:10:23.888Z,10.13
2018-11-05T22:12:52.744Z,7.80
2018-11-05T22:15:22.534Z,8.10
2018-11-05T22:17:51.534Z,10.83
2018-11-05T22:20:20.504Z,9.67
2018-11-05T22:22:49.331Z,8.60
2018-11-05T22:25:18.231Z,7.93
2018-11-05T22:27:47.234Z,9.73
2018-11-05T22:30:16.182Z,9.83
2018-11-05T22:32:45.676Z,9.57
2018-11-05T22:35:14.599Z,9.80
2018-11-05T22:37:43.548Z,10.80
2018-11-05T22:40:14.686Z,9.73
2018-11-05T22:42:43.591Z,11.13
2018-11-05T22:45:13.726Z,11.70
2018-11-05T22:47:43.259Z,11.63
2018-11-05T22:50:13.196Z,12.40
2018-11-05T22:52:42.443Z,14.37
2018-11-05T22:55:11.355Z,15.33
2018-11-05T22:57:40.717Z,14.43
2018-11-05T23:00:20.663Z,15.60
2018-11-05T23:02:55.274Z,10.93
2018-11-05T23:05:24.368Z,15.77
2018-11-05T23:07:54.310Z,15.83
2018-11-05T23:10:23.091Z,19.37
2018-11-05T23:12:51.887Z,15.97
2018-11-05T23:15:20.856Z,14.30
2018-11-05T23:17:50.644Z,17.47
2018-11-05T23:20:20.228Z,13.07
2018-11-05T23:22:49.003Z,15.27
2018-11-05T23:25:17.920Z,13.97
2018-11-05T23:27:46.778Z,13.43
2018-11-05T23:30:16.479Z,15.60
2018-11-05T23:32:45.252Z,11.20
2018-11-05T23:35:14.053Z,13.27
2018-11-05T23:37:42.848Z,11.97
2018-11-05T23:40:11.603Z,14.90
2018-11-05T23:42:40.434Z,17.07
2018-11-05T23:45:14.973Z,16.93
2018-11-05T23:47:43.821Z,13.77
2018-11-05T23:50:12.762Z,14.23
2018-11-05T23:52:41.533Z,15.20
2018-11-05T23:55:11.106Z,14.97
2018-11-05T23:57:40.123Z,11.53
